createdAt,value
2022-11-23T00:01:33.949Z,3.67
2022-11-23T00:04:05.467Z,2.07
2022-11-23T00:06:32.802Z,4.57
2022-11-23T00:09:04.933Z,4.50
2022-11-23T00:11:35.314Z,6.37
2022-11-23T00:14:02.517Z,3.83
2022-11-23T00:16:30.976Z,1.93
2022-11-23T00:19:00.263Z,5.80
2022-11-23T00:21:31.357Z,4.33
2022-11-23T00:23:58.504Z,5.10
2022-11-23T00:26:25.268Z,5.90
2022-11-23T00:28:52.090Z,7.40
2022-11-23T00:31:21.112Z,5.03
2022-11-23T00:33:53.487Z,4.23
2022-11-23T00:36:22.581Z,4.20
2022-11-23T00:38:50.814Z,6.87
2022-11-23T00:41:24.280Z,6.80
2022-11-23T00:43:51.100Z,7.33
2022-11-23T00:46:19.404Z,5.53
2022-11-23T00:48:48.919Z,8.00
2022-11-23T00:51:19.611Z,2.97
2022-11-23T00:53:46.547Z,5.83
2022-11-23T00:56:14.084Z,5.33
2022-11-23T00:58:41.096Z,3.77
2022-11-23T01:01:15.605Z,3.00
2022-11-23T01:03:47.506Z,5.93
2022-11-23T01:06:20.949Z,4.10
2022-11-23T01:08:53.488Z,4.60
2022-11-23T01:11:21.658Z,3.87
2022-11-23T01:13:49.194Z,9.27
2022-11-23T01:16:24.190Z,5.17
2022-11-23T01:18:57.578Z,6.30
2022-11-23T01:21:26.515Z,5.80
2022-11-23T01:23:54.160Z,7.77
2022-11-23T01:26:21.316Z,6.83
2022-11-23T01:28:48.428Z,4.40
2022-11-23T01:31:18.920Z,5.80
2022-11-23T01:33:46.514Z,4.93
2022-11-23T01:36:17.135Z,9.97
2022-11-23T01:38:45.806Z,4.47
2022-11-23T01:41:20.598Z,4.97
2022-11-23T01:43:48.273Z,6.33
2022-11-23T01:46:15.652Z,7.00
2022-11-23T01:48:57.585Z,5.37
2022-11-23T01:51:30.972Z,5.80
2022-11-23T01:54:10.671Z,3.67
2022-11-23T01:56:44.021Z,7.80
2022-11-23T01:59:16.805Z,5.07
2022-11-23T02:01:44.004Z,8.50
2022-11-23T02:04:19.362Z,8.80
2022-11-23T02:06:47.832Z,7.47
2022-11-23T02:09:16.498Z,6.07
2022-11-23T02:11:43.287Z,12.30
2022-11-23T02:14:10.368Z,6.53
2022-11-23T02:16:38.607Z,8.60
2022-11-23T02:19:18.001Z,5.97
2022-11-23T02:21:45.993Z,6.03
2022-11-23T02:24:28.461Z,8.37
2022-11-23T02:26:55.692Z,7.33
2022-11-23T02:29:27.353Z,5.93
2022-11-23T02:31:54.792Z,8.10
2022-11-23T02:34:21.541Z,6.50
2022-11-23T02:36:57.396Z,10.10
2022-11-23T02:39:34.684Z,7.40
2022-11-23T02:42:01.718Z,9.23
2022-11-23T02:44:54.661Z,7.90
2022-11-23T02:47:21.597Z,7.77
2022-11-23T02:49:49.819Z,10.30
2022-11-23T02:52:18.275Z,5.30
2022-11-23T02:54:45.140Z,7.27
2022-11-23T02:57:11.837Z,9.13
2022-11-23T02:59:39.547Z,9.80
2022-11-23T03:02:06.664Z,6.70
2022-11-23T03:04:33.456Z,5.93
2022-11-23T03:07:00.474Z,9.67
2022-11-23T03:09:28.206Z,7.77
2022-11-23T03:11:55.077Z,11.00
2022-11-23T03:14:22.021Z,12.73
2022-11-23T03:16:48.745Z,7.37
2022-11-23T03:19:15.533Z,8.70
2022-11-23T03:21:42.356Z,6.77
2022-11-23T03:24:09.063Z,8.13
2022-11-23T03:26:35.939Z,6.67
2022-11-23T03:29:02.735Z,6.43
2022-11-23T03:31:29.501Z,6.73
2022-11-23T03:33:56.260Z,8.50
2022-11-23T03:36:23.113Z,9.57
2022-11-23T03:38:49.840Z,5.33
2022-11-23T03:41:16.553Z,8.80
2022-11-23T03:43:43.287Z,6.20
2022-11-23T03:46:10.004Z,15.43
2022-11-23T03:48:36.756Z,7.60
2022-11-23T03:51:03.465Z,5.47
2022-11-23T03:53:30.184Z,3.70
2022-11-23T03:55:58.145Z,8.47
2022-11-23T03:58:24.895Z,7.93
2022-11-23T04:00:51.803Z,4.20
2022-11-23T04:03:18.622Z,9.80
2022-11-23T04:05:45.357Z,4.60
2022-11-23T04:08:12.308Z,10.03
2022-11-23T04:10:39.049Z,9.63
2022-11-23T04:13:05.854Z,6.13
2022-11-23T04:15:32.699Z,5.57
2022-11-23T04:17:59.561Z,4.80
2022-11-23T04:20:26.321Z,5.07
2022-11-23T04:22:53.434Z,5.43
2022-11-23T04:25:20.143Z,7.73
2022-11-23T04:27:46.976Z,7.57
2022-11-23T04:30:14.612Z,7.13
2022-11-23T04:32:44.631Z,8.43
2022-11-23T04:35:11.838Z,5.17
2022-11-23T04:37:38.574Z,6.87
2022-11-23T04:40:06.399Z,4.73
2022-11-23T04:42:33.087Z,6.23
2022-11-23T04:44:59.836Z,6.97
2022-11-23T04:47:27.070Z,8.20
2022-11-23T04:49:53.845Z,9.07
2022-11-23T04:52:20.834Z,6.57
2022-11-23T04:54:47.623Z,10.73
2022-11-23T04:57:14.379Z,9.43
2022-11-23T04:59:41.150Z,11.10
2022-11-23T05:02:08.031Z,10.23
2022-11-23T05:04:35.058Z,8.60
2022-11-23T05:07:01.980Z,13.70
2022-11-23T05:09:28.933Z,5.77
2022-11-23T05:11:55.695Z,5.87
2022-11-23T05:14:22.453Z,12.27
2022-11-23T05:16:49.162Z,8.07
2022-11-23T05:19:15.941Z,9.83
2022-11-23T05:21:42.672Z,8.80
2022-11-23T05:24:09.517Z,11.23
2022-11-23T05:26:36.247Z,6.00
2022-11-23T05:29:03.147Z,7.67
2022-11-23T05:31:29.956Z,10.27
2022-11-23T05:33:56.651Z,10.07
2022-11-23T05:36:23.435Z,10.67
2022-11-23T05:38:51.503Z,8.67
2022-11-23T05:41:18.238Z,7.80
2022-11-23T05:43:45.005Z,5.73
2022-11-23T05:46:11.745Z,7.87
2022-11-23T05:48:38.506Z,8.60
2022-11-23T05:51:05.765Z,5.50
2022-11-23T05:53:33.113Z,8.40
2022-11-23T05:56:03.603Z,13.13
2022-11-23T05:58:30.575Z,7.70
2022-11-23T06:00:59.729Z,6.10
2022-11-23T06:03:27.136Z,12.10
2022-11-23T06:05:53.946Z,4.47
2022-11-23T06:08:20.714Z,6.20
2022-11-23T06:10:47.430Z,9.17
2022-11-23T06:13:14.154Z,6.27
2022-11-23T06:15:40.948Z,4.73
2022-11-23T06:18:07.731Z,8.73
2022-11-23T06:20:34.415Z,2.03
2022-11-23T06:23:01.272Z,7.70
2022-11-23T06:25:28.077Z,6.67
2022-11-23T06:27:56.517Z,7.40
2022-11-23T06:30:24.713Z,4.30
2022-11-23T06:32:51.871Z,6.07
2022-11-23T06:35:19.526Z,11.53
2022-11-23T06:37:49.403Z,6.10
2022-11-23T06:40:16.298Z,4.70
2022-11-23T06:42:43.126Z,9.13
2022-11-23T06:45:10.487Z,11.20
2022-11-23T06:47:37.230Z,8.67
2022-11-23T06:50:04.857Z,6.27
2022-11-23T06:52:31.727Z,4.67
2022-11-23T06:54:58.436Z,10.00
2022-11-23T06:57:25.156Z,11.03
2022-11-23T06:59:52.131Z,5.20
2022-11-23T07:02:18.877Z,12.73
2022-11-23T07:04:45.618Z,6.67
2022-11-23T07:07:12.389Z,8.97
2022-11-23T07:09:39.190Z,7.50
2022-11-23T07:12:06.331Z,6.77
2022-11-23T07:14:33.094Z,8.00
2022-11-23T07:16:59.792Z,6.97
2022-11-23T07:19:26.498Z,7.93
2022-11-23T07:21:53.191Z,7.33
2022-11-23T07:24:19.901Z,11.70
2022-11-23T07:26:46.791Z,7.57
2022-11-23T07:29:13.567Z,10.40
2022-11-23T07:31:40.346Z,11.73
2022-11-23T07:34:09.092Z,9.80
2022-11-23T07:36:35.805Z,9.43
2022-11-23T07:39:03.542Z,8.10
2022-11-23T07:41:30.318Z,6.90
2022-11-23T07:43:57.072Z,9.20
2022-11-23T07:46:23.902Z,7.10
2022-11-23T07:48:50.780Z,7.97
2022-11-23T07:51:20.013Z,3.57
2022-11-23T07:53:47.284Z,10.87
2022-11-23T07:56:14.086Z,5.67
2022-11-23T07:58:40.879Z,6.53
2022-11-23T08:01:07.641Z,9.27
2022-11-23T08:03:34.765Z,8.07
2022-11-23T08:06:01.590Z,9.17
2022-11-23T08:08:28.518Z,12.93
2022-11-23T08:10:55.314Z,9.33
2022-11-23T08:13:23.011Z,3.47
2022-11-23T08:15:54.963Z,8.33
2022-11-23T08:18:24.013Z,12.07
2022-11-23T08:20:51.015Z,6.70
2022-11-23T08:23:18.034Z,9.97
2022-11-23T08:25:44.811Z,8.67
2022-11-23T08:28:11.973Z,10.43
2022-11-23T08:30:39.381Z,9.83
2022-11-23T08:33:08.659Z,7.20
2022-11-23T08:35:40.501Z,6.50
2022-11-23T08:38:09.838Z,9.50
2022-11-23T08:40:37.853Z,6.53
2022-11-23T08:43:06.076Z,8.33
2022-11-23T08:45:33.073Z,7.73
2022-11-23T08:48:01.616Z,10.20
2022-11-23T08:50:32.253Z,7.83
2022-11-23T08:53:00.455Z,7.33
2022-11-23T08:55:29.052Z,5.20
2022-11-23T08:57:57.739Z,6.07
2022-11-23T09:00:25.667Z,8.73
2022-11-23T09:02:52.805Z,5.20
2022-11-23T09:05:20.046Z,6.27
2022-11-23T09:07:46.839Z,7.90
2022-11-23T09:10:18.040Z,4.27
2022-11-23T09:12:48.048Z,5.63
2022-11-23T09:15:15.258Z,4.43
2022-11-23T09:17:42.405Z,4.70
2022-11-23T09:20:10.286Z,3.72
2022-11-23T09:22:44.087Z,5.20
2022-11-23T09:25:11.178Z,5.80
2022-11-23T09:27:57.527Z,7.05
2022-11-23T09:30:24.406Z,6.07
2022-11-23T09:32:51.305Z,5.35
2022-11-23T09:35:18.127Z,5.13
2022-11-23T09:37:44.888Z,4.55
2022-11-23T09:40:17.391Z,4.72
2022-11-23T09:43:00.704Z,8.32
2022-11-23T09:45:54.845Z,3.75
2022-11-23T09:48:51.313Z,5.07
2022-11-23T09:51:23.004Z,4.72
2022-11-23T09:54:26.682Z,5.07
2022-11-23T09:57:01.357Z,4.22
2022-11-23T09:59:40.760Z,6.65
2022-11-23T10:02:30.426Z,6.18
2022-11-23T10:05:00.501Z,4.93
2022-11-23T10:08:06.399Z,5.32
2022-11-23T10:10:51.284Z,4.68
2022-11-23T10:13:49.838Z,6.95
2022-11-23T10:16:52.702Z,7.13
2022-11-23T10:19:52.569Z,4.28
2022-11-23T10:22:34.946Z,4.63
2022-11-23T10:25:17.734Z,6.95
2022-11-23T10:27:56.799Z,8.57
2022-11-23T10:30:23.823Z,4.38
2022-11-23T10:33:43.008Z,3.78
2022-11-23T10:36:13.647Z,5.45
2022-11-23T10:38:41.264Z,5.13
2022-11-23T10:41:12.431Z,3.13
2022-11-23T10:43:54.076Z,3.30
2022-11-23T10:46:28.107Z,5.97
2022-11-23T10:48:55.952Z,4.60
2022-11-23T10:51:33.137Z,3.83
2022-11-23T10:54:16.264Z,5.05
2022-11-23T10:56:49.148Z,3.47
2022-11-23T10:59:38.888Z,3.03
2022-11-23T11:02:19.357Z,3.83
2022-11-23T11:04:48.452Z,5.60
2022-11-23T11:07:29.171Z,3.92
2022-11-23T11:10:06.309Z,3.78
2022-11-23T11:12:35.118Z,1.95
2022-11-23T11:15:15.979Z,3.03
2022-11-23T11:17:43.055Z,4.20
2022-11-23T11:20:27.592Z,5.20
2022-11-23T11:23:11.744Z,5.30
2022-11-23T11:25:39.696Z,3.50
2022-11-23T11:28:26.203Z,3.28
2022-11-23T11:34:22.350Z,2.83
2022-11-23T11:37:28.941Z,2.17
2022-11-23T11:40:13.246Z,5.03
2022-11-23T11:43:17.606Z,5.27
2022-11-23T11:53:13.528Z,4.90
2022-11-23T11:56:04.270Z,3.23
2022-11-23T11:58:40.271Z,1.97
2022-11-23T12:01:36.628Z,5.60
2022-11-23T12:04:58.221Z,6.87
2022-11-23T12:07:35.724Z,3.27
2022-11-23T12:10:17.321Z,3.60
2022-11-23T12:12:44.355Z,4.17
2022-11-23T12:18:48.263Z,4.90
2022-11-23T12:21:22.144Z,2.17
2022-11-23T12:24:25.215Z,3.07
2022-11-23T12:27:02.830Z,3.27
2022-11-23T12:30:17.721Z,3.57
2022-11-23T12:32:52.757Z,5.30
2022-11-23T12:35:58.682Z,4.03
2022-11-23T12:38:41.905Z,4.43
2022-11-23T12:41:30.374Z,6.80
2022-11-23T12:44:46.076Z,3.87
2022-11-23T12:47:44.684Z,2.63
2022-11-23T12:50:35.248Z,5.33
2022-11-23T12:53:34.881Z,4.90
2022-11-23T12:56:20.344Z,4.67
2022-11-23T12:58:50.059Z,4.73
2022-11-23T13:01:32.348Z,3.40
2022-11-23T13:04:57.372Z,4.83
2022-11-23T13:07:42.086Z,5.80
2022-11-23T13:10:49.183Z,5.47
2022-11-23T13:13:43.805Z,3.20
2022-11-23T13:16:34.971Z,3.63
2022-11-23T13:19:35.491Z,4.73
2022-11-23T13:22:06.702Z,4.40
2022-11-23T13:24:40.776Z,1.83
2022-11-23T13:27:13.280Z,2.87
2022-11-23T13:29:52.188Z,3.37
2022-11-23T13:32:54.849Z,4.10
2022-11-23T13:35:21.955Z,3.43
2022-11-23T13:37:57.534Z,1.60
2022-11-23T13:40:33.315Z,2.80
2022-11-23T13:43:25.186Z,3.10
2022-11-23T13:46:28.685Z,3.53
2022-11-23T13:48:59.829Z,2.83
2022-11-23T13:51:34.849Z,3.80
2022-11-23T13:54:06.105Z,2.30
2022-11-23T13:56:38.656Z,3.67
2022-11-23T13:59:23.564Z,6.63
2022-11-23T14:02:31.982Z,3.63
2022-11-23T14:05:49.127Z,2.03
2022-11-23T14:08:19.328Z,4.53
2022-11-23T14:10:48.951Z,2.43
2022-11-23T14:13:24.381Z,2.10
2022-11-23T14:16:02.991Z,7.20
2022-11-23T14:19:12.637Z,4.33
2022-11-23T14:22:21.521Z,3.50
2022-11-23T14:25:24.562Z,5.80
2022-11-23T14:28:08.946Z,2.10
2022-11-23T14:31:13.501Z,4.10
2022-11-23T14:34:10.577Z,2.17
2022-11-23T14:37:37.272Z,3.70
2022-11-23T14:40:42.594Z,3.43
2022-11-23T14:43:19.565Z,8.17
2022-11-23T14:45:47.779Z,6.27
2022-11-23T14:48:31.397Z,7.07
2022-11-23T14:51:03.792Z,8.50
2022-11-23T14:53:42.669Z,3.13
2022-11-23T14:56:47.343Z,6.13
2022-11-23T14:59:18.121Z,5.77
2022-11-23T15:01:53.081Z,12.90
2022-11-23T15:04:34.584Z,4.83
2022-11-23T15:07:19.729Z,4.30
2022-11-23T15:10:16.885Z,5.97
2022-11-23T15:12:47.590Z,5.60
2022-11-23T15:15:20.769Z,6.13
2022-11-23T15:17:57.268Z,5.60
2022-11-23T15:20:32.418Z,6.67
2022-11-23T15:23:05.007Z,8.60
2022-11-23T15:25:32.132Z,4.60
2022-11-23T15:27:58.910Z,10.87
2022-11-23T15:30:30.910Z,9.53
2022-11-23T15:33:08.809Z,9.93
2022-11-23T15:35:38.942Z,4.80
2022-11-23T15:38:17.758Z,4.73
2022-11-23T15:40:49.772Z,3.30
2022-11-23T15:43:19.513Z,3.47
2022-11-23T15:45:46.248Z,3.87
2022-11-23T15:48:26.720Z,4.23
2022-11-23T15:51:00.039Z,4.37
2022-11-23T15:53:46.486Z,6.47
2022-11-23T15:56:28.279Z,6.90
2022-11-23T15:58:57.043Z,4.20
2022-11-23T16:01:23.987Z,3.70
2022-11-23T16:04:02.044Z,5.93
2022-11-23T16:06:38.940Z,5.40
2022-11-23T16:09:51.230Z,4.43
2022-11-23T16:12:26.450Z,5.20
2022-11-23T16:14:58.775Z,4.17
2022-11-23T16:17:29.713Z,4.10
2022-11-23T16:20:05.114Z,3.33
2022-11-23T16:22:47.679Z,5.10
2022-11-23T16:25:37.637Z,5.47
2022-11-23T16:28:27.189Z,1.83
2022-11-23T16:30:53.992Z,1.97
2022-11-23T16:33:21.283Z,3.73
2022-11-23T16:35:49.078Z,1.40
2022-11-23T16:38:15.960Z,1.97
2022-11-23T16:40:44.476Z,1.53
2022-11-23T16:43:12.630Z,3.90
2022-11-23T16:45:42.418Z,1.50
2022-11-23T16:48:39.144Z,2.57
2022-11-23T16:51:07.189Z,1.67
2022-11-23T16:53:53.539Z,1.77
2022-11-23T16:56:25.087Z,2.57
2022-11-23T16:58:52.845Z,1.87
2022-11-23T17:01:27.131Z,2.77
2022-11-23T17:03:54.241Z,3.33
2022-11-23T17:06:24.259Z,3.57
2022-11-23T17:08:59.554Z,2.13
2022-11-23T17:11:30.203Z,2.70
2022-11-23T17:13:58.157Z,2.43
2022-11-23T17:16:26.854Z,2.40
2022-11-23T17:18:53.911Z,4.60
2022-11-23T17:21:20.656Z,4.63
2022-11-23T17:23:47.630Z,2.30
2022-11-23T17:26:32.250Z,1.50
2022-11-23T17:29:02.279Z,1.53
2022-11-23T17:31:29.793Z,5.73
2022-11-23T17:33:56.576Z,3.50
2022-11-23T17:36:25.720Z,3.00
2022-11-23T17:38:53.127Z,1.77
2022-11-23T17:41:19.819Z,1.97
2022-11-23T17:43:46.557Z,1.43
2022-11-23T17:46:23.954Z,1.50
2022-11-23T17:48:56.854Z,1.70
2022-11-23T17:51:25.062Z,2.03
2022-11-23T17:53:52.149Z,1.53
2022-11-23T17:56:23.159Z,1.83
2022-11-23T17:58:52.308Z,2.47
2022-11-23T18:01:21.736Z,3.33
2022-11-23T18:03:48.946Z,3.83
2022-11-23T18:06:22.946Z,5.13
2022-11-23T18:08:51.921Z,1.83
2022-11-23T18:11:21.422Z,3.33
2022-11-23T18:13:50.391Z,2.63
2022-11-23T18:16:22.350Z,2.23
2022-11-23T18:18:50.923Z,2.67
2022-11-23T18:21:19.466Z,3.43
2022-11-23T18:23:46.404Z,5.03
2022-11-23T18:26:27.051Z,4.07
2022-11-23T18:28:53.976Z,2.40
2022-11-23T18:31:20.931Z,4.13
2022-11-23T18:33:48.189Z,2.87
2022-11-23T18:36:15.475Z,6.43
2022-11-23T18:38:45.963Z,5.33
2022-11-23T18:41:16.446Z,4.10
2022-11-23T18:43:44.574Z,2.13
2022-11-23T18:46:18.956Z,6.40
2022-11-23T21:08:45.601Z,16.43
2022-11-23T21:23:23.905Z,10.53
2022-11-23T21:25:50.680Z,14.40
2022-11-23T21:28:17.513Z,13.73
2022-11-23T21:30:44.716Z,16.33
2022-11-23T21:33:12.140Z,11.07
2022-11-23T21:35:38.919Z,12.40
2022-11-23T21:38:05.641Z,16.57
2022-11-23T21:40:32.590Z,7.73
2022-11-23T21:42:59.416Z,13.07
2022-11-23T21:45:26.183Z,8.07
2022-11-23T21:47:54.961Z,11.93
2022-11-23T21:50:21.773Z,15.03
2022-11-23T21:52:48.503Z,13.53
2022-11-23T21:55:15.539Z,11.67
2022-11-23T21:57:42.314Z,9.63
2022-11-23T22:00:09.934Z,11.77
2022-11-23T22:02:36.859Z,16.13
2022-11-23T22:05:04.106Z,13.70
2022-11-23T22:07:34.166Z,11.33
2022-11-23T22:10:01.076Z,16.83
2022-11-23T22:12:27.903Z,14.67
2022-11-23T22:14:54.694Z,10.10
2022-11-23T22:17:21.441Z,11.50
2022-11-23T22:19:48.495Z,9.90
2022-11-23T22:22:15.235Z,7.97
2022-11-23T22:24:42.009Z,9.93
2022-11-23T22:27:08.793Z,14.67
2022-11-23T22:29:35.564Z,12.93
2022-11-23T22:32:02.378Z,11.70
2022-11-23T22:34:29.939Z,17.00
2022-11-23T22:36:56.978Z,15.83
2022-11-23T22:39:23.709Z,10.27
2022-11-23T22:41:50.498Z,13.57
2022-11-23T22:44:17.339Z,16.07
2022-11-23T22:46:44.380Z,13.40
2022-11-23T22:49:11.181Z,9.07
2022-11-23T22:51:38.020Z,8.93
2022-11-23T22:54:04.914Z,13.57
2022-11-23T22:56:32.009Z,12.60
2022-11-23T22:58:59.685Z,16.13
2022-11-23T23:01:30.757Z,10.60
2022-11-23T23:04:01.881Z,8.70
2022-11-23T23:06:35.897Z,11.37
2022-11-23T23:09:06.448Z,11.60
2022-11-23T23:11:35.701Z,8.03
2022-11-23T23:14:03.245Z,14.17
2022-11-23T23:16:30.329Z,13.23
2022-11-23T23:18:59.124Z,11.67
2022-11-23T23:21:28.530Z,12.43
2022-11-23T23:23:58.981Z,12.33
2022-11-23T23:26:28.462Z,12.80
2022-11-23T23:28:57.726Z,13.30
2022-11-23T23:31:25.886Z,9.37
2022-11-23T23:33:53.615Z,10.77
2022-11-23T23:36:22.429Z,7.43
2022-11-23T23:38:49.979Z,6.13
2022-11-23T23:41:17.272Z,8.03
2022-11-23T23:43:44.123Z,5.73
2022-11-23T23:46:13.479Z,12.93
2022-11-23T23:48:41.462Z,9.63
2022-11-23T23:51:15.066Z,13.70
2022-11-23T23:53:43.238Z,12.37
2022-11-23T23:56:19.050Z,8.47
2022-11-23T23:58:46.133Z,13.63
